Data for 02/07/2008

Time Sea-Level Adjusted Pressure Absolute Pressure Temperature Relative Humidity Dew Point   
(mb) (inHg) (mb) (inHg) (C) (F) (%) (C) (F)
00:05 1012 29.88 841 24.83 -4.6 23.7 46 -14.6 5.7
00:10 1012 29.88 841 24.83 -4.5 24 47 -14.3 6.3
00:15 1012 29.88 841 24.83 -4.6 23.8 48 -13.9 7
00:20 1012 29.88 841 24.83 -4.7 23.5 49 -14 6.8
00:25 1012 29.88 841 24.83 -4.7 23.6 48 -14.1 6.6
00:30 1012 29.88 841 24.83 -4.5 23.8 49 -13.8 7.2
00:35 1012 29.88 841 24.83 -4.6 23.7 48 -14.1 6.6
00:40 1012 29.88 841 24.83 -4.5 23.8 48 -14 6.7
00:45 1012 29.88 841 24.83 -4.6 23.7 47 -14.3 6.3
00:50 1012 29.88 841 24.83 -4.6 23.8 46 -14.5 6
00:55 1012 29.88 841 24.83 -4.6 23.7 47 -14.4 6.1
01:00 1012 29.88 841 24.83 -4.5 23.8 45 -14.8 5.4
01:05 1012 29.88 841 24.83 -4.4 24.1 45 -14.6 5.7
01:10 1011 29.85 841 24.83 -4.5 23.9 44 -15 4.9
01:15 1011 29.85 840 24.81 -4.5 23.9 44 -14.9 5.1
01:20 1011 29.85 840 24.81 -4.3 24.2 44 -14.9 5.2
01:25 1011 29.85 840 24.81 -4.2 24.4 45 -14.6 5.7
01:30 1011 29.85 840 24.81 -4.3 24.3 45 -14.5 5.9
01:35 1011 29.85 840 24.81 -4.2 24.4 46 -14.2 6.4
01:40 1011 29.85 840 24.81 -4.3 24.3 46 -14.2 6.4
01:45 1011 29.85 840 24.81 -4.4 24.1 48 -13.8 7.1
01:50 1011 29.85 840 24.81 -4.5 23.9 50 -13.5 7.7
01:55 1011 29.85 840 24.81 -4.6 23.7 50 -13.4 7.8
02:00 1011 29.85 840 24.81 -4.7 23.6 50 -13.6 7.6
02:05 1010 29.83 840 24.81 -4.6 23.6 49 -13.8 7.2
02:10 1010 29.83 840 24.81 -4.5 24 51 -13.2 8.3
02:15 1010 29.83 839 24.78 -4.6 23.8 52 -13 8.6
02:20 1010 29.83 839 24.78 -4.7 23.6 51 -13.4 7.9
02:25 1010 29.83 839 24.78 -4.7 23.5 52 -13.1 8.4
02:30 1010 29.83 839 24.78 -4.6 23.7 50 -13.6 7.6
02:35 1010 29.83 839 24.78 -4.5 23.8 53 -12.7 9.2
02:40 1010 29.83 839 24.78 -4.7 23.5 53 -12.8 8.9
02:45 1010 29.83 839 24.78 -4.9 23.1 54 -12.8 9
02:50 1010 29.83 839 24.78 -5.1 22.9 56 -12.6 9.4
02:55 1009 29.8 839 24.78 -5.2 22.7 56 -12.7 9.1
03:00 1009 29.8 839 24.78 -5.3 22.4 56 -12.8 9
03:05 1009 29.8 838 24.75 -5.5 22.2 55 -13.1 8.5
03:10 1009 29.8 838 24.75 -5.5 22.1 55 -13.2 8.3
03:15 1009 29.8 838 24.75 -5.4 22.3 55 -13 8.6
03:20 1009 29.8 838 24.75 -5.3 22.5 53 -13.4 7.8
03:25 1009 29.8 838 24.75 -5 23.1 50 -13.8 7.1
03:30 1008 29.77 838 24.75 -4.7 23.5 48 -14 6.7
03:35 1008 29.77 837 24.72 -4.6 23.7 51 -13.4 7.9
03:40 1008 29.77 837 24.72 -4.6 23.7 52 -13.1 8.4
03:45 1008 29.77 837 24.72 -4.9 23.2 54 -12.7 9.1
03:50 1008 29.77 837 24.72 -5.1 22.8 54 -13 8.6
03:55 1008 29.77 837 24.72 -5.1 22.8 54 -13.1 8.4
04:00 1008 29.77 837 24.72 -5.2 22.7 54 -13.1 8.5
04:05 1007 29.74 837 24.72 -5.3 22.4 54 -13.3 8.1
04:10 1007 29.74 837 24.72 -5.4 22.3 55 -13.2 8.3
04:15 1007 29.74 836 24.69 -5.5 22.1 54 -13.5 7.7
04:20 1007 29.74 836 24.69 -5.4 22.2 56 -13 8.7
04:25 1007 29.74 836 24.69 -5.5 22.1 55 -13.2 8.2
04:30 1007 29.74 836 24.69 -5.5 22.1 53 -13.7 7.4
04:35 1007 29.74 836 24.69 -5.5 22.1 53 -13.6 7.6
04:40 1007 29.74 836 24.69 -5.4 22.2 53 -13.5 7.6
04:45 1007 29.74 836 24.69 -5.4 22.2 54 -13.4 7.9
04:50 1006 29.71 836 24.69 -5.4 22.2 54 -13.4 7.8
04:55 1006 29.71 836 24.69 -5.5 22.1 54 -13.4 7.9
05:00 1006 29.71 835 24.66 -5.5 22.1 55 -13.3 8.1
05:05 1006 29.71 835 24.66 -5.5 22.1 55 -13.3 8.1
05:10 1006 29.71 835 24.66 -5.5 22.2 55 -13.2 8.2
05:15 1006 29.71 835 24.66 -5.4 22.2 56 -12.9 8.8
05:20 1005 29.68 835 24.66 -5.5 22.1 56 -12.9 8.8
05:25 1005 29.68 834 24.63 -5.5 22.2 56 -13 8.5
05:30 1005 29.68 834 24.63 -5.5 22.2 56 -13 8.6
05:35 1005 29.68 834 24.63 -5.4 22.3 56 -12.9 8.8
05:40 1005 29.68 834 24.63 -5.3 22.4 56 -12.8 8.9
05:45 1005 29.68 834 24.63 -5.3 22.4 56 -12.7 9.2
05:50 1005 29.68 834 24.63 -5.3 22.5 57 -12.6 9.4
05:55 1004 29.65 834 24.63 -5.3 22.5 58 -12.3 9.8
06:00 1004 29.65 834 24.63 -5.3 22.5 60 -12 10.4
06:05 1005 29.68 834 24.63 -5.4 22.3 60 -11.9 10.6
06:10 1005 29.68 834 24.63 -5.4 22.3 61 -11.7 10.9
06:15 1005 29.68 834 24.63 -5.2 22.6 60 -11.8 10.8
06:20 1005 29.68 834 24.63 -5 23.1 56 -12.4 9.7
06:25 1005 29.68 834 24.63 -4.6 23.8 56 -12 10.4
06:30 1005 29.68 834 24.63 -4.5 23.8 58 -11.7 11
06:35 1005 29.68 834 24.63 -4.8 23.4 58 -11.9 10.6
06:40 1005 29.68 834 24.63 -4.7 23.6 56 -12.2 10.1
06:45 1005 29.68 834 24.63 -4.6 23.7 60 -11.2 11.9
06:50 1005 29.68 834 24.63 -5.2 22.6 62 -11.4 11.5
06:55 1005 29.68 834 24.63 -5.3 22.4 63 -11.3 11.7
07:00 1005 29.68 834 24.63 -5.1 22.8 60 -11.8 10.8
07:05 1005 29.68 834 24.63 -5.2 22.7 61 -11.5 11.2
07:10 1005 29.68 834 24.63 -5.4 22.2 62 -11.6 11.1
07:15 1005 29.68 834 24.63 -5.5 22 61 -12 10.5
07:20 1005 29.68 834 24.63 -5.4 22.2 60 -12 10.3
07:25 1005 29.68 834 24.63 -5.2 22.7 59 -12.1 10.2
07:30 1005 29.68 834 24.63 -4.8 23.3 59 -11.7 11
07:35 1005 29.68 834 24.63 -4.7 23.5 55 -12.4 9.7
07:40 1005 29.68 834 24.63 -4.6 23.7 57 -11.8 10.8
07:45 1005 29.68 834 24.63 -4.4 24.1 57 -11.8 10.8
07:50 1004 29.65 833 24.6 -4.5 24 59 -11.3 11.6
07:55 1004 29.65 833 24.6 -5.1 22.9 62 -11.2 11.9
08:00 1004 29.65 833 24.6 -5.3 22.4 64 -11.1 12
08:05 1003 29.62 833 24.6 -5.5 22.2 64 -11.2 11.9
08:10 1003 29.62 832 24.57 -5.4 22.3 65 -11.1 12
08:15 1003 29.62 832 24.57 -5.3 22.4 63 -11.4 11.5
08:20 1003 29.62 832 24.57 -5 22.9 61 -11.4 11.5
08:25 1003 29.62 832 24.57 -3.9 24.9 57 -11.3 11.7
08:30 1003 29.62 832 24.57 -3.1 26.4 58 -10.3 13.5
08:35 1002 29.59 832 24.57 -2 28.4 56 -9.6 14.7
08:40 1002 29.59 831 24.54 -0.9 30.5 55 -8.8 16.1
08:45 1002 29.59 831 24.54 -0.3 31.5 54 -8.4 16.8
08:50 1002 29.59 831 24.54 0 32 54 -8.3 17.1
08:55 1002 29.59 831 24.54 0.1 32.3 54 -8.1 17.4
09:00 1002 29.59 831 24.54 0.4 32.7 53 -8.2 17.2
09:05 1002 29.59 831 24.54 0.6 33.1 51 -8.3 17.1
09:10 1002 29.59 831 24.54 0.7 33.2 52 -8.1 17.5
09:15 1002 29.59 831 24.54 0.8 33.5 52 -7.9 17.7
09:20 1002 29.59 831 24.54 1 33.9 52 -7.7 18.1
09:25 1002 29.59 831 24.54 1.1 33.9 52 -7.8 18
09:30 1002 29.59 831 24.54 1.2 34.1 52 -7.6 18.3
09:35 1002 29.59 831 24.54 1.2 34.1 51 -7.8 17.9
09:40 1002 29.59 831 24.54 1.2 34.2 51 -7.8 18
09:45 1002 29.59 831 24.54 1.3 34.4 51 -7.7 18.1
09:50 1002 29.59 831 24.54 1.4 34.5 52 -7.4 18.7
09:55 1002 29.59 831 24.54 1.4 34.5 53 -7.1 19.2
10:00 1002 29.59 831 24.54 1.5 34.6 54 -6.9 19.5
10:05 1002 29.59 831 24.54 1.7 35 51 -7.3 18.9
10:10 1002 29.59 831 24.54 1.8 35.3 52 -6.9 19.5
10:15 1002 29.59 831 24.54 2 35.6 52 -6.7 19.9
10:20 1002 29.59 831 24.54 2 35.7 51 -7 19.4
10:25 1002 29.59 831 24.54 2.1 35.7 53 -6.6 20.1
10:30 1002 29.59 831 24.54 2.1 35.7 50 -7.3 18.9
10:35 1002 29.59 831 24.54 2.4 36.3 46 -8 17.6
10:40 1002 29.59 831 24.54 2.5 36.4 47 -7.7 18.1
10:45 1002 29.59 831 24.54 2.4 36.3 47 -7.7 18.2
10:50 1002 29.59 831 24.54 2.3 36.2 48 -7.5 18.5
10:55 1002 29.59 831 24.54 2.4 36.3 49 -7.4 18.8
11:00 1002 29.59 831 24.54 2.3 36.2 48 -7.5 18.5
11:05 1002 29.59 831 24.54 2.2 36 47 -7.8 17.9
11:10 1002 29.59 831 24.54 2.3 36.2 47 -7.9 17.8
11:15 1002 29.59 831 24.54 2.2 35.9 49 -7.4 18.6
11:20 1002 29.59 831 24.54 1.8 35.3 50 -7.4 18.6
11:25 1002 29.59 831 24.54 1.9 35.4 50 -7.4 18.6
11:30 1002 29.59 831 24.54 2.1 35.7 50 -7.4 18.7
11:35 1002 29.59 831 24.54 2.2 35.9 48 -7.8 17.9
11:40 1002 29.59 831 24.54 2.4 36.4 48 -7.4 18.7
11:45 1002 29.59 831 24.54 2.6 36.6 46 -8 17.5
11:50 1002 29.59 831 24.54 2.7 36.9 43 -8.6 16.6
11:55 1002 29.59 831 24.54 2.7 36.8 44 -8.3 17
12:00 1002 29.59 831 24.54 2.5 36.5 43 -8.7 16.3
12:05 1002 29.59 831 24.54 2.5 36.5 44 -8.4 16.8
12:10 1002 29.59 831 24.54 2.6 36.7 43 -8.6 16.5
12:15 1002 29.59 831 24.54 2.8 37 42 -8.8 16.1
12:20 1002 29.59 831 24.54 3 37.4 41 -9.1 15.7
12:25 1002 29.59 831 24.54 3.3 38 40 -8.9 15.9
12:30 1002 29.59 831 24.54 3.8 38.9 41 -8.3 17
12:35 1002 29.59 831 24.54 4.4 39.9 40 -8.2 17.3
12:40 1002 29.59 831 24.54 4.3 39.8 52 -4.6 23.7
12:45 1002 29.59 832 24.57 2.6 36.6 58 -4.9 23.2
12:50 1002 29.59 832 24.57 1.9 35.5 61 -4.7 23.5
12:55 1003 29.62 832 24.57 1.6 34.9 64 -4.6 23.7
13:00 1002 29.59 832 24.57 1.6 34.9 64 -4.5 24
13:05 1002 29.59 832 24.57 1.6 34.8 64 -4.4 24
13:10 1002 29.59 832 24.57 1.5 34.7 63 -4.8 23.4
13:15 1002 29.59 832 24.57 1.4 34.6 63 -4.8 23.4
13:20 1002 29.59 832 24.57 1.4 34.5 64 -4.7 23.6
13:25 1003 29.62 832 24.57 1.4 34.5 64 -4.6 23.7
13:30 1003 29.62 832 24.57 1.3 34.3 66 -4.5 24
13:35 1003 29.62 832 24.57 1.1 34 65 -4.7 23.6
13:40 1003 29.62 832 24.57 1.1 34 65 -4.8 23.4
13:45 1003 29.62 832 24.57 1.1 33.9 65 -4.8 23.4
13:50 1003 29.62 832 24.57 0.9 33.7 66 -4.7 23.5
13:55 1003 29.62 832 24.57 0.9 33.6 66 -4.8 23.4
14:00 1003 29.62 832 24.57 0.8 33.4 66 -4.8 23.3
14:05 1003 29.62 832 24.57 0.7 33.2 65 -5.2 22.7
14:10 1003 29.62 832 24.57 0.6 33.1 66 -5.1 22.9
14:15 1003 29.62 832 24.57 0.3 32.5 67 -5.1 22.8
14:20 1003 29.62 832 24.57 0 32.1 69 -5 22.9
14:25 1003 29.62 833 24.6 -0 31.9 69 -5.1 22.8
14:30 1004 29.65 833 24.6 -0.1 31.8 69 -5.2 22.7
14:35 1004 29.65 833 24.6 -0.5 31 84 -3 26.6
14:40 1004 29.65 833 24.6 -1.1 30.1 83 -3.6 25.4
14:45 1004 29.65 833 24.6 -1 30.2 77 -4.6 23.7
14:50 1004 29.65 833 24.6 -0.8 30.5 73 -5.1 22.9
14:55 1004 29.65 833 24.6 -0.4 31.2 68 -5.6 21.9
15:00 1004 29.65 833 24.6 -0.2 31.7 66 -5.9 21.5
15:05 1004 29.65 833 24.6 0.1 32.1 63 -6.2 20.8
15:10 1004 29.65 833 24.6 0.3 32.6 60 -6.6 20.1
15:15 1004 29.65 833 24.6 0.2 32.4 58 -7.1 19.1
15:20 1004 29.65 833 24.6 0.6 33 56 -7.2 19.1
15:25 1004 29.65 833 24.6 0.7 33.3 56 -7 19.4
15:30 1004 29.65 833 24.6 0.3 32.5 58 -7.1 19.1
15:35 1004 29.65 833 24.6 -0.1 31.8 58 -7.5 18.5
15:40 1004 29.65 833 24.6 -0.2 31.7 55 -8.1 17.4
15:45 1004 29.65 833 24.6 -0.1 31.8 54 -8.3 17.1
15:50 1004 29.65 833 24.6 0.1 32.2 54 -8.1 17.4
15:55 1004 29.65 834 24.63 0.3 32.5 52 -8.5 16.8
16:00 1005 29.68 834 24.63 0.1 32.2 55 -7.8 17.9
16:05 1005 29.68 834 24.63 -0.4 31.2 53 -8.8 16.2
16:10 1005 29.68 834 24.63 -0.6 30.9 54 -8.8 16.1
16:15 1005 29.68 834 24.63 -0.8 30.5 56 -8.5 16.6
16:20 1005 29.68 834 24.63 -0.9 30.5 57 -8.4 16.9
16:25 1005 29.68 834 24.63 -0.7 30.8 56 -8.3 17
16:30 1005 29.68 834 24.63 -0.3 31.5 54 -8.4 16.8
16:35 1005 29.68 834 24.63 -0.2 31.7 54 -8.3 17
16:40 1005 29.68 834 24.63 -0.6 31 55 -8.5 16.7
16:45 1005 29.68 834 24.63 -0.6 31 52 -9.2 15.5
16:50 1005 29.68 835 24.66 -0.4 31.3 50 -9.5 14.9
16:55 1005 29.68 835 24.66 -0.3 31.4 50 -9.5 14.8
17:00 1005 29.68 835 24.66 -0.4 31.3 50 -9.6 14.6
17:05 1005 29.68 835 24.66 -0.4 31.3 50 -9.5 14.8
17:10 1006 29.71 835 24.66 -0.3 31.5 49 -9.6 14.6
17:15 1006 29.71 835 24.66 0.1 32.2 48 -9.8 14.4
17:20 1006 29.71 835 24.66 0.1 32.2 46 -10.2 13.6
17:25 1006 29.71 835 24.66 0.1 32.1 44 -10.9 12.3
17:30 1006 29.71 835 24.66 -0.1 31.8 46 -10.5 13.1
17:35 1006 29.71 835 24.66 -0.3 31.5 46 -10.6 12.9
17:40 1006 29.71 835 24.66 -0.4 31.4 45 -10.8 12.5
17:45 1006 29.71 836 24.69 -0.5 31.2 47 -10.5 13
17:50 1006 29.71 836 24.69 -0.5 31.1 45 -11.1 12.1
17:55 1006 29.71 836 24.69 -0.6 31 45 -11.2 11.8
18:00 1006 29.71 836 24.69 -0.6 30.9 45 -11.2 11.8
18:05 1006 29.71 836 24.69 -0.6 30.9 46 -10.9 12.3
18:10 1006 29.71 836 24.69 -0.7 30.7 46 -10.9 12.3
18:15 1007 29.74 836 24.69 -0.8 30.6 46 -10.9 12.3
18:20 1007 29.74 836 24.69 -0.9 30.4 48 -10.7 12.8
18:25 1007 29.74 836 24.69 -1 30.3 48 -10.6 12.9
18:30 1007 29.74 836 24.69 -1.1 30.1 49 -10.4 13.3
18:35 1007 29.74 836 24.69 -1.1 30 49 -10.6 12.9
18:40 1007 29.74 836 24.69 -1.3 29.7 50 -10.3 13.4
18:45 1007 29.74 836 24.69 -1.4 29.5 49 -10.9 12.4
18:50 1007 29.74 836 24.69 -1.4 29.4 48 -11.1 12.1
18:55 1007 29.74 836 24.69 -1.4 29.4 48 -11.1 12.1
19:00 1007 29.74 836 24.69 -1.4 29.5 46 -11.5 11.3
19:05 1007 29.74 836 24.69 -1.2 29.8 46 -11.3 11.6
19:10 1007 29.74 836 24.69 -1.1 30.1 46 -11.2 11.8
19:15 1007 29.74 836 24.69 -1 30.2 47 -11 12.1
19:20 1007 29.74 836 24.69 -1 30.2 47 -11 12.2
19:25 1007 29.74 837 24.72 -1 30.1 48 -10.7 12.8
19:30 1008 29.77 837 24.72 -1.1 30 49 -10.5 13.1
19:35 1008 29.77 837 24.72 -1.1 30 48 -10.7 12.8
19:40 1008 29.77 837 24.72 -1.1 30 47 -11.1 12
19:45 1008 29.77 837 24.72 -1.1 30.1 47 -11 12.2
19:50 1008 29.77 837 24.72 -1 30.2 48 -10.8 12.6
19:55 1008 29.77 837 24.72 -1 30.3 47 -10.8 12.6
20:00 1008 29.77 837 24.72 -1 30.3 49 -10.4 13.4
20:05 1008 29.77 837 24.72 -1.1 30 51 -10 14.1
20:10 1008 29.77 837 24.72 -1.2 29.8 50 -10.4 13.3
20:15 1008 29.77 837 24.72 -1.2 29.9 50 -10.2 13.6
20:20 1008 29.77 838 24.75 -1.2 29.8 50 -10.3 13.4
20:25 1008 29.77 838 24.75 -1.2 29.8 51 -10.1 13.7
20:30 1009 29.8 838 24.75 -1.2 29.8 51 -10.1 13.8
20:35 1009 29.8 838 24.75 -1.3 29.7 50 -10.5 13.1
20:40 1009 29.8 838 24.75 -1.2 29.8 48 -10.8 12.6
20:45 1009 29.8 838 24.75 -1.2 29.9 48 -10.9 12.4
20:50 1009 29.8 838 24.75 -1.1 30 48 -10.9 12.4
20:55 1009 29.8 838 24.75 -1.1 30 48 -10.7 12.7
21:00 1009 29.8 838 24.75 -1.1 30 49 -10.5 13.1
21:05 1009 29.8 838 24.75 -1.2 29.9 49 -10.7 12.8
21:10 1009 29.8 838 24.75 -1.1 30 48 -10.7 12.7
21:15 1009 29.8 838 24.75 -1.1 30 49 -10.6 13
21:20 1009 29.8 838 24.75 -1.2 29.8 50 -10.2 13.6
21:25 1009 29.8 838 24.75 -1.3 29.7 51 -10.1 13.9
21:30 1009 29.8 838 24.75 -1.4 29.5 53 -9.8 14.4
21:35 1009 29.8 838 24.75 -1.4 29.5 52 -10 14
21:40 1009 29.8 838 24.75 -1.4 29.4 53 -9.9 14.2
21:45 1009 29.8 838 24.75 -1.5 29.4 52 -10 14
21:50 1009 29.8 838 24.75 -1.5 29.3 53 -9.9 14.1
21:55 1009 29.8 838 24.75 -1.5 29.3 53 -9.9 14.1
22:00 1009 29.8 839 24.78 -1.5 29.4 51 -10.3 13.5
22:05 1009 29.8 839 24.78 -1.4 29.5 52 -10.1 13.9
22:10 1009 29.8 839 24.78 -1.4 29.5 50 -10.4 13.3
22:15 1009 29.8 839 24.78 -1.3 29.6 51 -10.2 13.6
22:20 1009 29.8 838 24.75 -1.5 29.4 50 -10.5 13.1
22:25 1009 29.8 838 24.75 -1.5 29.3 51 -10.4 13.3
22:30 1009 29.8 838 24.75 -1.6 29.1 51 -10.5 13.1
22:35 1009 29.8 839 24.78 -1.8 28.8 52 -10.5 13.1
22:40 1009 29.8 839 24.78 -1.9 28.5 51 -10.7 12.8
22:45 1009 29.8 839 24.78 -2 28.4 51 -10.8 12.6
22:50 1009 29.8 839 24.78 -2 28.4 50 -11.1 12.1
22:55 1009 29.8 838 24.75 -1.9 28.6 50 -11 12.1
23:00 1009 29.8 839 24.78 -1.9 28.5 50 -11 12.2
23:05 1009 29.8 839 24.78 -2 28.3 50 -11 12.2
23:10 1009 29.8 839 24.78 -2.1 28.3 49 -11.3 11.6
23:15 1009 29.8 839 24.78 -2 28.3 49 -11.4 11.5
23:20 1010 29.83 839 24.78 -1.9 28.5 47 -11.8 10.7
23:25 1010 29.83 839 24.78 -1.8 28.8 47 -11.7 10.9
23:30 1010 29.83 839 24.78 -1.7 29 45 -12.3 9.9
23:35 1010 29.83 839 24.78 -1.7 29 45 -12 10.4
23:40 1010 29.83 839 24.78 -1.5 29.3 43 -12.7 9.2
23:45 1010 29.83 839 24.78 -1.4 29.5 43 -12.3 9.8
23:50 1010 29.83 839 24.78 -1.6 29.1 47 -11.6 11.1
23:55 1010 29.83 839 24.78 -1.7 28.9 46 -12 10.4
24:00 1010 29.83 839 24.78 -1.7 28.9 47 -11.7 11